CST,Max TemperatureF,Mean TemperatureF,Min TemperatureF,Max Dew PointF,MeanDew PointF,Min DewpointF,Max Humidity, Mean Humidity, Min Humidity, Max Sea Level PressureIn, Mean Sea Level PressureIn, Min Sea Level PressureIn, Max VisibilityMiles, Mean VisibilityMiles, Min VisibilityMiles, Max Wind SpeedMPH, Mean Wind SpeedMPH, Max Gust SpeedMPH,PrecipitationIn, CloudCover, Events, WindDirDegrees
2012-11-1,50,39,30,38,31,25,93,72,42,30.07,30.02,29.97,10,8,5,20,8,24,0.00,3,,348
2012-11-2,43,36,30,29,26,24,79,66,53,30.16,30.10,30.06,10,10,10,14,8,74,0.00,3,,80
2012-11-3,50,36,24,34,29,21,89,67,46,30.24,30.21,30.16,10,10,9,8,4,,0.00,6,Rain,323
2012-11-4,51,45,39,41,36,32,92,77,59,30.21,30.14,30.08,10,8,2,9,5,,0.18,8,Rain,116
2012-11-5,42,40,39,40,38,37,100,92,87,30.19,30.11,29.97,6,3,1,13,7,,0.13,8,Rain,278
2012-11-6,48,42,37,37,36,32,93,77,61,30.05,29.93,29.85,10,9,5,25,16,41,0.01,7,Rain,281
2012-11-7,48,38,28,33,31,26,92,73,52,30.17,30.10,30.04,10,10,10,14,8,,0.00,1,,235
2012-11-8,59,47,35,36,34,31,89,70,41,30.02,29.95,29.90,10,10,5,20,12,28,0.00,0,,188
2012-11-9,55,44,33,44,37,30,93,80,57,29.97,29.89,29.75,10,6,0,18,10,26,0.00,3,Fog,62
2012-11-10,70,58,46,56,48,44,94,79,41,29.73,29.57,29.45,10,7,2,28,16,41,0.67,5,Rain-Thunderstorm,179
2012-11-11,44,32,19,43,22,12,93,76,58,30.09,29.87,29.61,10,10,9,26,20,36,0.01,5,Rain,296
2012-11-12,30,24,18,16,14,12,81,69,51,30.38,30.20,30.03,10,10,10,28,18,36,0.00,2,,275
2012-11-13,48,32,15,29,21,11,84,64,34,30.40,30.33,30.27,10,10,10,13,6,,0.00,2,,164
2012-11-14,52,40,28,32,29,24,85,69,43,30.32,30.25,30.18,10,10,8,12,4,,0.00,3,,192
2012-11-15,52,40,23,35,28,18,82,68,47,30.50,30.33,30.16,10,10,10,16,9,,0.00,0,,315
2012-11-16,48,32,16,29,22,12,88,68,39,30.51,30.43,30.33,10,10,10,13,6,,0.00,0,,151
2012-11-17,57,45,33,37,32,28,85,61,39,30.32,30.23,30.16,10,10,7,22,13,31,0.00,2,,167
2012-11-18,60,50,39,35,32,29,65,52,38,30.15,30.10,30.05,10,10,10,21,15,26,0.00,0,,170
2012-11-19,57,46,36,39,36,33,89,69,49,30.13,30.05,30.00,10,9,5,14,10,,0.00,1,,229
2012-11-20,60,40,21,37,29,20,93,73,31,30.24,30.17,30.07,10,7,0,12,5,,0.00,0,Fog,228
2012-11-21,70,56,43,44,39,33,71,55,33,30.06,29.91,29.73,10,10,10,23,14,31,0.00,0,,198
2012-11-22,55,42,30,44,34,19,82,65,49,30.18,29.88,29.66,10,10,8,28,16,41,0.00,3,,282
2012-11-23,28,19,9,18,12,6,88,64,49,30.47,30.37,30.16,10,10,10,29,21,43,0.00,4,,316
2012-11-24,37,22,8,21,14,4,84,64,41,30.43,30.12,29.86,10,10,10,18,7,26,0.00,2,,191
2012-11-25,41,32,24,26,22,18,82,70,47,30.22,30.03,29.87,10,10,7,14,7,,0.00,4,,328
2012-11-26,28,19,10,19,8,3,80,64,46,30.50,30.41,30.24,10,10,10,22,11,29,0.00,2,,326
2012-11-27,39,26,12,24,16,6,88,73,53,30.43,30.29,30.16,10,10,10,23,10,26,0.00,1,,231
2012-11-28,44,26,8,25,17,5,88,71,45,30.43,30.28,30.09,10,10,6,15,6,,0.00,0,,191
2012-11-29,46,32,18,29,23,14,88,71,50,30.07,30.04,29.99,10,9,6,12,4,,0.00,0,,76
2012-11-30,44,34,23,32,27,20,89,80,62,30.14,30.07,29.99,7,5,2,15,8,,0.00,0,,68